Time;durP1;ratioP1;P1;durP2;ratioP2;P2;SDS_P1;SDS_P2;PMS_P1;PMS_P2;Temp;Humidity;BMP_temperature;BMP_pressure;BME280_temperature;BME280_humidity;BME280_pressure;Samples;Min_cycle;Max_cycle;Signal;HPM_P1;HPM_P2
2022/09/13 00:01:29;;;;;;;2.65;1.60;;;26.70;58.10;;;;;;10426809;28;20163;-33
2022/09/13 00:06:30;;;;;;;2.28;1.52;;;27.10;58.50;;;;;;10431655;28;21013;-32
2022/09/13 00:11:34;;;;;;;2.65;1.55;;;27.50;58.80;;;;;;10417728;28;20140;-30
2022/09/13 00:16:36;;;;;;;2.13;1.67;;;26.60;58.20;;;;;;10422929;28;20065;-31
2022/09/13 00:21:37;;;;;;;2.95;1.33;;;26.60;58.30;;;;;;10429384;28;20049;-31
2022/09/13 00:26:41;;;;;;;2.00;1.50;;;26.60;58.30;;;;;;10419885;28;20045;-34
2022/09/13 00:31:42;;;;;;;6.13;1.65;;;26.60;58.50;;;;;;10425698;28;20045;-31
2022/09/13 00:36:44;;;;;;;2.83;1.50;;;26.60;59.00;;;;;;10419327;28;20636;-32
2022/09/13 00:41:47;;;;;;;1.67;1.52;;;26.60;58.50;;;;;;10410953;28;20670;-33
2022/09/13 00:46:50;;;;;;;2.03;1.70;;;26.50;58.50;;;;;;10426663;28;20068;-31
2022/09/13 00:51:56;;;;;;;1.77;1.67;;;26.50;58.50;;;;;;10428440;28;20136;-34
2022/09/13 00:57:04;;;;;;;1.70;1.55;;;26.50;58.60;;;;;;10428438;28;20045;-35
2022/09/13 01:02:06;;;;;;;2.80;2.00;;;26.50;58.60;;;;;;10414682;28;20059;-34
2022/09/13 01:07:13;;;;;;;3.42;2.33;;;26.80;58.90;;;;;;10409208;28;20056;-33
2022/09/13 01:12:25;;;;;;;2.42;1.83;;;26.50;58.70;;;;;;10418878;28;20056;-32
2022/09/13 01:17:28;;;;;;;2.80;1.63;;;26.40;58.70;;;;;;10430465;28;20421;-35
2022/09/13 01:23:00;;;;;;;2.22;1.83;;;26.40;58.70;;;;;;10426885;28;20136;-32
2022/09/13 01:28:32;;;;;;;1.80;1.63;;;26.40;58.70;;;;;;10420373;28;20080;-32
2022/09/13 01:33:56;;;;;;;2.88;2.05;;;26.40;58.70;;;;;;10418982;28;20131;-31
2022/09/13 01:39:04;;;;;;;1.88;1.70;;;26.30;58.80;;;;;;10421749;28;20052;-33
2022/09/13 01:44:13;;;;;;;3.47;1.55;;;26.30;58.80;;;;;;10429353;28;20052;-33
2022/09/13 01:49:20;;;;;;;2.53;1.98;;;26.30;58.80;;;;;;10424623;28;20073;-34
2022/09/13 01:54:34;;;;;;;4.22;1.88;;;26.30;58.90;;;;;;10415788;28;20160;-34
2022/09/13 01:59:44;;;;;;;3.13;1.85;;;26.30;58.90;;;;;;10422878;28;20045;-33
2022/09/13 02:04:53;;;;;;;2.83;1.67;;;26.30;59.00;;;;;;10424969;28;21012;-39
2022/09/13 02:09:59;;;;;;;2.22;1.75;;;26.20;58.90;;;;;;10421941;28;20084;-33
2022/09/13 02:15:08;;;;;;;2.38;1.75;;;26.00;58.90;;;;;;10417501;28;20045;-32
2022/09/13 02:20:17;;;;;;;1.85;1.55;;;26.20;59.00;;;;;;10427137;28;20545;-32
2022/09/13 02:25:22;;;;;;;2.47;1.75;;;26.20;59.10;;;;;;10407205;28;20573;-29
2022/09/13 02:30:24;;;;;;;2.08;1.60;;;26.20;59.10;;;;;;10420162;28;20485;-30
2022/09/13 02:35:32;;;;;;;2.70;1.67;;;26.20;59.20;;;;;;10424332;28;20142;-33
2022/09/13 02:40:39;;;;;;;3.00;2.00;;;26.20;59.20;;;;;;10400562;28;20741;-32
2022/09/13 02:45:47;;;;;;;2.05;1.75;;;26.10;59.20;;;;;;10407094;28;20510;-33
2022/09/13 02:50:59;;;;;;;1.92;1.40;;;26.20;59.30;;;;;;10411089;28;20048;-35
2022/09/13 02:56:11;;;;;;;3.97;1.75;;;26.20;59.30;;;;;;10410296;28;20103;-31
2022/09/13 03:01:14;;;;;;;3.65;1.80;;;26.10;59.30;;;;;;10408928;28;20042;-34
2022/09/13 03:06:23;;;;;;;1.77;1.50;;;26.10;59.30;;;;;;10420003;28;21357;-36
2022/09/13 03:11:36;;;;;;;2.67;1.95;;;26.10;59.40;;;;;;10423290;28;20072;-34
2022/09/13 03:16:53;;;;;;;2.42;1.58;;;26.10;60.00;;;;;;10415885;28;20048;-31
2022/09/13 03:22:12;;;;;;;2.00;1.52;;;25.90;59.40;;;;;;10430090;28;20095;-32
2022/09/13 03:27:23;;;;;;;1.92;1.70;;;26.00;59.50;;;;;;10420629;28;20045;-32
2022/09/13 03:32:35;;;;;;;2.90;1.60;;;26.00;59.60;;;;;;10427615;28;20048;-29
2022/09/13 03:37:47;;;;;;;1.73;1.58;;;26.00;59.70;;;;;;10431417;28;20045;-35
2022/09/13 03:42:53;;;;;;;1.75;1.63;;;25.90;59.70;;;;;;10427637;28;20152;-35
2022/09/13 03:47:57;;;;;;;3.53;1.67;;;26.00;59.80;;;;;;10440550;28;20132;-35
2022/09/13 03:53:04;;;;;;;2.10;1.50;;;26.00;60.00;;;;;;10430436;28;20059;-30
2022/09/13 03:58:06;;;;;;;2.08;1.80;;;25.90;60.40;;;;;;10424511;28;20049;-32
2022/09/13 04:03:08;;;;;;;2.28;1.30;;;25.90;59.90;;;;;;10427718;28;20053;-31
2022/09/13 04:08:11;;;;;;;1.55;1.45;;;25.80;60.10;;;;;;10430058;28;20106;-37
2022/09/13 04:13:13;;;;;;;2.45;1.40;;;25.90;60.00;;;;;;10429518;28;20405;-32
2022/09/13 04:18:15;;;;;;;1.83;1.40;;;25.90;60.00;;;;;;10412716;28;20565;-30
2022/09/13 04:23:18;;;;;;;1.45;0.82;;;26.00;60.10;;;;;;10406487;28;20084;-33
2022/09/13 04:28:21;;;;;;;2.75;1.58;;;25.90;60.00;;;;;;10407135;28;20088;-33
2022/09/13 04:33:23;;;;;;;1.80;1.27;;;26.00;60.10;;;;;;10425039;28;20140;-32
2022/09/13 04:38:30;;;;;;;2.03;1.30;;;25.90;60.00;;;;;;10439121;28;20045;-34
2022/09/13 04:43:32;;;;;;;1.83;1.10;;;25.80;60.00;;;;;;10439620;28;20061;-30
2022/09/13 04:48:34;;;;;;;1.40;1.30;;;25.90;60.10;;;;;;10437587;28;20138;-31
2022/09/13 04:53:37;;;;;;;1.63;1.15;;;25.80;60.20;;;;;;10425944;28;20132;-34
2022/09/13 04:58:39;;;;;;;3.22;1.23;;;25.80;60.10;;;;;;10418798;28;20143;-32
2022/09/13 05:03:41;;;;;;;2.20;1.45;;;25.80;60.20;;;;;;10419742;28;20041;-33
2022/09/13 05:08:44;;;;;;;2.45;1.00;;;25.80;60.20;;;;;;10419012;28;20126;-33
2022/09/13 05:13:51;;;;;;;1.40;1.00;;;25.80;60.30;;;;;;10416465;28;20576;-35
2022/09/13 05:18:54;;;;;;;1.42;1.33;;;25.80;60.40;;;;;;10413294;28;20079;-34
2022/09/13 05:23:58;;;;;;;1.67;1.00;;;25.80;60.30;;;;;;10432019;28;20438;-31
2022/09/13 05:29:00;;;;;;;1.30;1.20;;;25.80;60.30;;;;;;10411483;28;20686;-34
2022/09/13 05:34:05;;;;;;;1.23;1.00;;;25.80;60.40;;;;;;10414200;28;20131;-32
2022/09/13 05:39:13;;;;;;;1.10;1.00;;;25.80;60.60;;;;;;10425153;28;20045;-33
2022/09/13 05:44:15;;;;;;;2.22;1.10;;;25.80;60.50;;;;;;10410186;28;20104;-34
2022/09/13 05:49:17;;;;;;;1.88;1.08;;;25.80;60.40;;;;;;10421399;28;20092;-36
2022/09/13 05:54:20;;;;;;;1.15;0.95;;;25.80;60.50;;;;;;10427122;28;20060;-31
2022/09/13 05:59:22;;;;;;;1.90;1.05;;;26.00;60.60;;;;;;10426885;28;20052;-36
2022/09/13 06:04:24;;;;;;;1.63;0.95;;;25.90;60.40;;;;;;10423822;28;20076;-32
2022/09/13 06:09:27;;;;;;;1.73;0.85;;;25.80;60.20;;;;;;10385609;28;20410;-34
2022/09/13 06:14:29;;;;;;;2.65;1.67;;;25.70;60.30;;;;;;10408231;28;20057;-37
2022/09/13 06:19:31;;;;;;;3.10;1.80;;;25.70;60.20;;;;;;10419934;28;20484;-32
2022/09/13 06:24:36;;;;;;;6.25;3.25;;;25.70;60.30;;;;;;10411879;28;20057;-32
2022/09/13 06:29:38;;;;;;;6.32;3.55;;;25.70;60.30;;;;;;10413598;28;20045;-28
2022/09/13 06:34:40;;;;;;;4.07;2.78;;;25.60;61.10;;;;;;10420644;28;20052;-30
2022/09/13 06:39:43;;;;;;;5.45;3.40;;;25.00;63.00;;;;;;10413814;28;20139;-34
2022/09/13 06:44:47;;;;;;;5.68;2.38;;;26.00;61.60;;;;;;10423999;28;20045;-32
2022/09/13 06:49:49;;;;;;;5.40;1.98;;;25.10;65.20;;;;;;10412412;28;20529;-32
2022/09/13 06:54:52;;;;;;;3.42;1.88;;;24.80;64.20;;;;;;10417890;28;20053;-33
2022/09/13 06:59:54;;;;;;;2.45;1.45;;;24.90;65.80;;;;;;10428370;28;20044;-33
2022/09/13 07:04:55;;;;;;;1.85;1.30;;;25.10;62.50;;;;;;10428158;28;20041;-32
2022/09/13 07:09:59;;;;;;;;;;;25.20;64.80;;;;;;10407421;28;20208;-30
2022/09/13 07:15:01;;;;;;;1.50;1.00;;;25.10;63.80;;;;;;10423969;28;19924;-29
2022/09/13 07:20:06;;;;;;;3.55;1.20;;;25.40;63.00;;;;;;10436314;28;20088;-33
2022/09/13 07:25:09;;;;;;;4.78;1.85;;;25.30;62.70;;;;;;10418027;28;20143;-30
2022/09/13 07:30:11;;;;;;;4.45;2.47;;;25.50;62.30;;;;;;10426439;28;20073;-33
2022/09/13 07:35:14;;;;;;;2.88;1.95;;;25.60;62.10;;;;;;10423748;28;20095;-34
2022/09/13 07:40:17;;;;;;;3.90;1.50;;;25.70;62.00;;;;;;10434759;28;20603;-31
2022/09/13 07:45:20;;;;;;;2.55;1.48;;;25.60;62.00;;;;;;10420272;28;20085;-33
2022/09/13 07:50:22;;;;;;;1.45;1.08;;;25.60;62.10;;;;;;10421644;28;20072;-32
2022/09/13 07:55:25;;;;;;;1.30;0.73;;;25.80;61.90;;;;;;10431735;28;20065;-34
2022/09/13 08:00:28;;;;;;;0.90;0.57;;;25.80;61.70;;;;;;10431866;28;20081;-33
2022/09/13 08:05:31;;;;;;;2.90;0.80;;;25.90;61.50;;;;;;10437108;28;20490;-34
2022/09/13 08:10:35;;;;;;;1.77;1.00;;;25.80;61.80;;;;;;10441694;28;20136;-35
2022/09/13 08:15:36;;;;;;;1.08;0.40;;;25.30;63.40;;;;;;10439638;28;20052;-30
2022/09/13 08:20:39;;;;;;;3.80;0.90;;;25.90;61.70;;;;;;10441355;28;20067;-31
2022/09/13 08:25:42;;;;;;;0.98;0.50;;;25.50;62.40;;;;;;10440274;28;20136;-38
2022/09/13 08:30:44;;;;;;;1.30;0.60;;;25.30;63.90;;;;;;10438795;28;20094;-33
2022/09/13 08:35:54;;;;;;;0.90;0.52;;;25.80;62.00;;;;;;10439968;28;20045;-32
2022/09/13 08:40:59;;;;;;;2.58;0.70;;;25.90;61.60;;;;;;10441984;28;20190;-32
2022/09/13 08:46:06;;;;;;;2.50;0.50;;;25.20;63.80;;;;;;10441100;28;20501;-32
2022/09/13 08:51:18;;;;;;;4.03;0.75;;;24.50;66.60;;;;;;10439628;28;20123;-32
2022/09/13 08:56:26;;;;;;;3.38;0.65;;;25.80;64.20;;;;;;10441361;28;20044;-32
2022/09/13 09:01:47;;;;;;;2.85;0.70;;;25.70;62.50;;;;;;10439707;28;20887;-29
2022/09/13 09:06:49;;;;;;;1.23;0.50;;;25.40;63.00;;;;;;10423843;28;20159;-34
2022/09/13 09:11:58;;;;;;;2.95;0.70;;;25.80;62.30;;;;;;10397892;28;20050;-32
2022/09/13 09:17:04;;;;;;;2.65;0.90;;;25.90;62.10;;;;;;10397492;28;20111;-35
2022/09/13 09:22:13;;;;;;;2.97;0.60;;;25.90;62.00;;;;;;10396085;28;20602;-33
2022/09/13 09:27:19;;;;;;;11.80;0.70;;;25.90;62.30;;;;;;10398629;28;20077;-34
2022/09/13 09:32:49;;;;;;;2.15;0.50;;;25.90;62.60;;;;;;10398762;28;20147;-34
2022/09/13 09:38:08;;;;;;;4.75;0.80;;;26.00;61.80;;;;;;10395187;28;20187;-31
2022/09/13 09:43:19;;;;;;;3.88;0.65;;;25.60;62.90;;;;;;10398644;28;20140;-32
2022/09/13 09:48:37;;;;;;;7.60;0.93;;;25.90;62.10;;;;;;10552478;27;20764;-31
2022/09/13 09:53:44;;;;;;;6.60;0.70;;;26.00;62.00;;;;;;10514928;28;20101;-33
2022/09/13 09:58:47;;;;;;;4.03;1.00;;;26.10;61.60;;;;;;10514479;28;20417;-32
2022/09/13 10:04:02;;;;;;;1.70;0.60;;;25.90;61.70;;;;;;10511823;28;20148;-32
2022/09/13 10:09:07;;;;;;;2.95;0.82;;;26.10;61.30;;;;;;10512759;28;20052;-36
2022/09/13 10:14:28;;;;;;;4.38;0.75;;;26.40;60.90;;;;;;10512380;28;20048;-30
2022/09/13 10:19:32;;;;;;;3.38;0.95;;;26.30;60.70;;;;;;10512234;28;20090;-39
2022/09/13 10:24:34;;;;;;;2.13;0.50;;;26.50;60.70;;;;;;10512805;28;20117;-32
2022/09/13 10:29:36;;;;;;;2.83;0.90;;;26.30;60.50;;;;;;10513263;28;20122;-35
2022/09/13 10:34:45;;;;;;;1.20;0.50;;;26.10;61.30;;;;;;10509120;28;20537;-32
2022/09/13 10:39:55;;;;;;;1.45;0.57;;;26.10;60.90;;;;;;10511061;28;20052;-34
2022/09/13 10:45:00;;;;;;;2.58;1.05;;;26.40;60.20;;;;;;10510694;28;20048;-37
2022/09/13 10:50:19;;;;;;;0.90;0.50;;;26.40;60.10;;;;;;10510868;28;20066;-32
2022/09/13 10:55:28;;;;;;;2.30;0.63;;;25.90;61.10;;;;;;10508830;28;20052;-33
2022/09/13 11:00:39;;;;;;;2.15;1.08;;;26.50;59.90;;;;;;10482441;28;20053;-34
2022/09/13 11:05:47;;;;;;;2.10;0.80;;;26.60;59.60;;;;;;10482522;28;20040;-29
2022/09/13 11:11:00;;;;;;;2.72;0.73;;;26.60;59.70;;;;;;10482117;28;20135;-33
2022/09/13 11:16:16;;;;;;;1.83;0.52;;;26.10;61.00;;;;;;10482302;28;20049;-34
2022/09/13 11:21:36;;;;;;;4.40;0.90;;;26.40;60.10;;;;;;10481885;28;20135;-32
2022/09/13 11:26:49;;;;;;;2.40;0.73;;;26.50;59.50;;;;;;10480567;28;20477;-32
2022/09/13 11:31:59;;;;;;;1.15;0.60;;;26.30;60.10;;;;;;10480693;28;20086;-31
2022/09/13 11:37:24;;;;;;;1.90;0.60;;;26.60;59.70;;;;;;10479871;28;20084;-33
2022/09/13 11:42:39;;;;;;;1.60;0.52;;;26.80;64.30;;;;;;10480649;28;20051;-35
2022/09/13 11:47:48;;;;;;;4.45;0.60;;;26.80;60.30;;;;;;10477951;28;20080;-29
2022/09/13 11:53:00;;;;;;;2.88;0.68;;;25.70;62.60;;;;;;10480388;28;20102;-29
2022/09/13 11:58:04;;;;;;;;;;;26.70;60.60;;;;;;10480314;28;20134;-33
2022/09/13 12:03:17;;;;;;;2.33;0.40;;;26.50;60.30;;;;;;10476335;28;20360;-30
2022/09/13 12:08:24;;;;;;;3.28;0.80;;;26.50;60.00;;;;;;10477427;28;20044;-32
2022/09/13 12:13:28;;;;;;;2.47;0.52;;;26.60;60.20;;;;;;10473531;28;20190;-30
2022/09/13 12:18:34;;;;;;;2.72;0.70;;;26.80;59.50;;;;;;10476711;28;20049;-31
2022/09/13 12:23:43;;;;;;;2.10;0.60;;;26.60;59.80;;;;;;10475083;28;20075;-30
2022/09/13 12:28:49;;;;;;;2.35;0.80;;;26.30;58.20;;;;;;10476769;28;20450;-31
2022/09/13 12:33:51;;;;;;;1.30;0.50;;;26.70;59.40;;;;;;10476473;28;20994;-35
2022/09/13 12:39:16;;;;;;;2.03;0.50;;;27.00;58.50;;;;;;10477440;28;20046;-33
2022/09/13 12:44:37;;;;;;;3.05;0.50;;;26.90;58.70;;;;;;10475467;28;20048;-29
2022/09/13 12:50:10;;;;;;;5.85;0.30;;;27.00;56.10;;;;;;10478208;28;20136;-31
2022/09/13 12:55:41;;;;;;;2.67;0.63;;;26.30;57.10;;;;;;10477154;28;20068;-31
2022/09/13 13:00:48;;;;;;;0.73;0.30;;;27.00;58.20;;;;;;10456391;28;20061;-35
2022/09/13 13:05:56;;;;;;;3.80;0.90;;;27.10;55.40;;;;;;10477597;28;20076;-33
2022/09/13 13:11:06;;;;;;;1.55;0.40;;;27.30;57.40;;;;;;10478297;28;20135;-34
2022/09/13 13:16:24;;;;;;;0.63;0.38;;;26.00;58.50;;;;;;10472660;28;20045;-30
2022/09/13 13:21:31;;;;;;;2.83;0.40;;;27.20;57.30;;;;;;10472475;28;20048;-33
2022/09/13 13:26:49;;;;;;;3.92;0.50;;;27.20;57.20;;;;;;10472684;28;20458;-34
2022/09/13 13:32:19;;;;;;;1.50;0.47;;;26.40;58.30;;;;;;10474976;28;20500;-32
2022/09/13 13:37:34;;;;;;;2.03;0.60;;;27.30;57.00;;;;;;10425224;28;20041;-29
2022/09/13 13:42:38;;;;;;;2.45;0.57;;;27.30;56.70;;;;;;10473672;28;20048;-28
2022/09/13 13:48:09;;;;;;;1.20;0.40;;;26.80;54.40;;;;;;10474750;28;20064;-34
2022/09/13 13:53:21;;;;;;;1.45;0.30;;;27.40;56.40;;;;;;10474633;28;20052;-31
2022/09/13 13:58:30;;;;;;;2.45;0.40;;;27.60;55.80;;;;;;10474950;28;20052;-31
2022/09/13 14:03:51;;;;;;;6.13;0.60;;;27.90;55.80;;;;;;10474124;28;20045;-33
2022/09/13 14:09:02;;;;;;;1.00;0.30;;;27.10;52.70;;;;;;10472575;28;20095;-30
2022/09/13 14:14:19;;;;;;;2.10;0.40;;;27.80;55.20;;;;;;10474426;28;20490;-29
2022/09/13 14:19:29;;;;;;;1.58;0.70;;;28.00;55.40;;;;;;10474708;28;20045;-34
2022/09/13 14:24:37;;;;;;;1.50;0.50;;;27.80;52.80;;;;;;10474492;28;20102;-33
2022/09/13 14:29:40;;;;;;;1.67;0.40;;;28.10;55.20;;;;;;10476507;28;20047;-32
2022/09/13 14:34:52;;;;;;;2.45;0.40;;;28.10;55.00;;;;;;10479347;28;20250;-31
2022/09/13 14:39:56;;;;;;;3.55;0.55;;;28.10;54.90;;;;;;10482811;28;21394;-37
2022/09/13 14:44:59;;;;;;;1.10;0.30;;;28.20;55.00;;;;;;10480038;28;20066;-34
2022/09/13 14:50:05;;;;;;;5.13;0.50;;;28.20;54.30;;;;;;10480576;28;20139;-31
2022/09/13 14:55:12;;;;;;;2.05;0.50;;;28.20;54.50;;;;;;10478563;28;20048;-30
2022/09/13 15:00:19;;;;;;;2.72;0.50;;;28.10;54.00;;;;;;10479119;28;20087;-29
2022/09/13 15:05:24;;;;;;;1.65;0.52;;;28.30;54.10;;;;;;10479341;28;20040;-31
2022/09/13 15:10:28;;;;;;;6.03;0.90;;;28.20;54.00;;;;;;10477846;28;20047;-35
2022/09/13 15:15:36;;;;;;;1.95;0.50;;;28.10;54.00;;;;;;10480844;28;20059;-32
2022/09/13 15:20:48;;;;;;;3.95;1.05;;;28.20;54.30;;;;;;10477765;28;20144;-31
2022/09/13 15:25:53;;;;;;;8.57;1.30;;;27.90;54.70;;;;;;10476199;28;20664;-34
2022/09/13 15:30:59;;;;;;;5.30;1.23;;;28.20;54.40;;;;;;10476456;28;20135;-30
2022/09/13 15:36:27;;;;;;;4.32;0.90;;;28.20;54.40;;;;;;10479199;28;20103;-32
2022/09/13 15:41:32;;;;;;;6.10;0.60;;;28.20;54.20;;;;;;10478614;28;20052;-32
2022/09/13 15:46:44;;;;;;;2.97;0.80;;;28.20;54.10;;;;;;10476563;28;20053;-37
2022/09/13 15:51:46;;;;;;;3.97;0.82;;;28.10;54.20;;;;;;10478701;28;20052;-32
2022/09/13 15:56:50;;;;;;;4.55;0.85;;;28.00;52.40;;;;;;10477554;28;20125;-34
2022/09/13 16:01:54;;;;;;;3.30;0.80;;;28.00;54.60;;;;;;10476886;28;20102;-34
2022/09/13 16:06:56;;;;;;;3.63;1.63;;;28.20;53.90;;;;;;10474252;28;20056;-27
2022/09/13 16:11:58;;;;;;;3.53;0.57;;;28.20;53.70;;;;;;10476901;28;20386;-29
2022/09/13 16:17:04;;;;;;;2.45;0.55;;;28.20;53.60;;;;;;10478186;28;20125;-32
2022/09/13 16:22:05;;;;;;;3.45;0.85;;;28.20;53.50;;;;;;10475752;28;20041;-30
2022/09/13 16:27:07;;;;;;;3.75;0.55;;;28.10;53.30;;;;;;10476125;28;20048;-32
2022/09/13 16:32:11;;;;;;;5.93;0.82;;;28.10;53.20;;;;;;10473628;28;20501;-36
2022/09/13 16:37:14;;;;;;;1.80;0.47;;;28.10;53.40;;;;;;10475592;28;20485;-36
2022/09/13 16:42:17;;;;;;;4.63;1.30;;;28.10;53.20;;;;;;10471108;28;20137;-37
2022/09/13 16:47:20;;;;;;;6.13;3.00;;;28.00;53.20;;;;;;10475167;28;20489;-39
2022/09/13 16:52:22;;;;;;;7.82;5.30;;;28.00;53.30;;;;;;10473588;28;20541;-31
2022/09/13 16:57:24;;;;;;;8.80;4.82;;;28.00;53.40;;;;;;10472489;28;20067;-28
2022/09/13 17:02:28;;;;;;;7.78;4.55;;;28.00;53.40;;;;;;10474793;28;20086;-34
2022/09/13 17:07:30;;;;;;;6.90;3.42;;;28.00;53.40;;;;;;10475153;28;20159;-33
2022/09/13 17:12:31;;;;;;;6.35;3.40;;;28.00;53.60;;;;;;10470245;28;20076;-30
2022/09/13 17:17:35;;;;;;;6.18;2.47;;;28.00;53.70;;;;;;10472371;28;20634;-36
2022/09/13 17:22:37;;;;;;;3.08;1.80;;;27.90;53.70;;;;;;10471887;28;20335;-31
2022/09/13 17:27:39;;;;;;;3.45;1.38;;;27.90;53.90;;;;;;10474268;28;20049;-35
2022/09/13 17:32:42;;;;;;;1.52;0.80;;;27.90;54.00;;;;;;10472649;28;20064;-33
2022/09/13 17:37:44;;;;;;;5.70;1.20;;;27.90;54.10;;;;;;10473370;28;20158;-33
2022/09/13 17:42:47;;;;;;;5.95;0.90;;;27.80;54.00;;;;;;10474183;28;20051;-42
2022/09/13 17:47:52;;;;;;;2.08;0.70;;;27.80;54.20;;;;;;10471559;28;20071;-32
2022/09/13 17:52:54;;;;;;;3.35;1.17;;;27.80;54.30;;;;;;10476493;28;20117;-34
2022/09/13 17:57:56;;;;;;;3.05;1.25;;;27.50;54.30;;;;;;10475576;28;20554;-36
2022/09/13 18:02:59;;;;;;;3.17;0.70;;;27.70;54.40;;;;;;10474394;28;20131;-31
2022/09/13 18:08:01;;;;;;;1.33;0.43;;;27.70;54.50;;;;;;10478065;28;20088;-31
2022/09/13 18:13:03;;;;;;;3.50;0.85;;;27.70;54.60;;;;;;10481079;28;20041;-33
2022/09/13 18:18:06;;;;;;;4.80;0.60;;;27.70;54.70;;;;;;10483062;28;20149;-35
2022/09/13 18:23:08;;;;;;;4.07;0.45;;;27.60;54.90;;;;;;10480721;28;20522;-30
2022/09/13 18:28:10;;;;;;;3.53;0.60;;;27.70;55.10;;;;;;10482772;28;20135;-35
2022/09/13 18:33:15;;;;;;;2.80;0.63;;;27.60;55.20;;;;;;10479030;28;20314;-33
2022/09/13 18:38:17;;;;;;;2.85;0.73;;;27.60;55.20;;;;;;10479145;28;22075;-37
2022/09/13 18:43:18;;;;;;;3.45;0.70;;;27.60;55.30;;;;;;10480711;28;20872;-36
2022/09/13 18:48:22;;;;;;;4.07;0.90;;;27.60;55.40;;;;;;10480253;28;20500;-40
2022/09/13 18:53:24;;;;;;;5.40;0.68;;;27.50;55.30;;;;;;10479795;28;20056;-36
2022/09/13 18:58:26;;;;;;;5.93;0.65;;;27.50;55.40;;;;;;10478876;28;20045;-33
2022/09/13 19:03:31;;;;;;;5.28;0.77;;;27.60;55.50;;;;;;10480574;28;20044;-34
2022/09/13 19:08:33;;;;;;;4.47;0.90;;;27.50;55.40;;;;;;10482437;28;20045;-31
2022/09/13 19:13:36;;;;;;;2.97;0.60;;;27.40;55.30;;;;;;10480457;28;20527;-32
2022/09/13 19:18:40;;;;;;;3.20;0.63;;;27.40;55.30;;;;;;10480178;28;20129;-28
2022/09/13 19:23:43;;;;;;;6.78;0.75;;;27.50;55.30;;;;;;10481300;28;20084;-34
2022/09/13 19:28:47;;;;;;;2.63;1.33;;;27.40;55.20;;;;;;10479097;28;20151;-31
2022/09/13 19:33:51;;;;;;;1.05;0.35;;;27.40;55.00;;;;;;10480042;28;20113;-27
2022/09/13 19:38:54;;;;;;;2.13;0.68;;;27.40;55.10;;;;;;10479445;28;20102;-32
2022/09/13 19:43:58;;;;;;;3.75;0.80;;;27.30;54.70;;;;;;10476542;28;20473;-31
2022/09/13 19:49:03;;;;;;;5.38;1.02;;;27.30;54.70;;;;;;10479257;28;20864;-31
2022/09/13 19:54:06;;;;;;;5.90;1.23;;;27.30;54.60;;;;;;10479392;28;20044;-33
2022/09/13 19:59:10;;;;;;;6.80;1.73;;;27.30;54.60;;;;;;10478469;28;20513;-33
2022/09/13 20:04:15;;;;;;;4.82;1.58;;;27.20;54.50;;;;;;10480375;28;20080;-30
2022/09/13 20:09:19;;;;;;;6.93;1.45;;;27.20;54.50;;;;;;10476424;28;20075;-33
2022/09/13 20:14:21;;;;;;;4.40;0.65;;;27.20;54.40;;;;;;10479659;28;20048;-33
2022/09/13 20:19:25;;;;;;;6.43;1.60;;;27.20;54.40;;;;;;10478389;28;20060;-30
2022/09/13 20:24:26;;;;;;;4.85;1.20;;;27.10;54.50;;;;;;10477316;28;20481;-31
2022/09/13 20:29:30;;;;;;;5.13;1.42;;;27.20;54.50;;;;;;10476345;28;20048;-33
2022/09/13 20:34:34;;;;;;;7.25;2.30;;;27.10;54.50;;;;;;10476522;28;20127;-30
2022/09/13 20:39:35;;;;;;;5.75;2.13;;;27.10;54.50;;;;;;10478005;28;20044;-29
2022/09/13 20:44:39;;;;;;;3.65;1.30;;;27.00;54.50;;;;;;10479723;28;20060;-34
2022/09/13 20:49:42;;;;;;;3.72;1.00;;;27.00;54.70;;;;;;10477624;28;20149;-34
2022/09/13 20:54:44;;;;;;;4.57;1.42;;;27.00;54.80;;;;;;10476552;28;20079;-34
2022/09/13 20:59:45;;;;;;;3.20;1.20;;;27.00;54.80;;;;;;10478072;28;20132;-33
2022/09/13 21:04:48;;;;;;;7.30;0.98;;;26.90;54.70;;;;;;10477134;28;20440;-31
2022/09/13 21:09:50;;;;;;;5.38;1.00;;;26.90;54.80;;;;;;10476507;28;20049;-32
2022/09/13 21:14:52;;;;;;;3.00;1.00;;;26.90;54.70;;;;;;10479980;28;20396;-34
2022/09/13 21:19:55;;;;;;;4.97;1.95;;;26.60;54.50;;;;;;10480435;28;20055;-31
2022/09/13 21:24:57;;;;;;;6.60;2.03;;;26.80;54.70;;;;;;10480122;28;20835;-32
2022/09/13 21:29:59;;;;;;;5.22;1.83;;;26.80;54.70;;;;;;10477661;28;20486;-33
2022/09/13 21:35:03;;;;;;;6.70;2.67;;;26.80;54.80;;;;;;10478581;28;20098;-33
2022/09/13 21:40:05;;;;;;;8.02;2.92;;;26.70;54.70;;;;;;10478571;28;20052;-33
2022/09/13 21:45:08;;;;;;;6.70;2.63;;;26.70;55.30;;;;;;10459289;28;20083;-32
2022/09/13 21:50:11;;;;;;;5.30;1.98;;;26.70;54.80;;;;;;10477745;28;20393;-31
2022/09/13 21:55:13;;;;;;;6.00;2.53;;;26.70;54.80;;;;;;10479043;28;20040;-32
2022/09/13 22:00:16;;;;;;;4.55;2.30;;;26.60;54.80;;;;;;10477706;28;20630;-31
2022/09/13 22:05:20;;;;;;;3.50;1.98;;;26.60;54.80;;;;;;10476428;28;20155;-32
2022/09/13 22:10:21;;;;;;;4.32;1.88;;;26.60;54.90;;;;;;10478056;28;20060;-34
2022/09/13 22:15:24;;;;;;;5.75;2.22;;;26.60;54.90;;;;;;10476501;28;20045;-32
2022/09/13 22:20:28;;;;;;;4.45;2.50;;;26.60;54.90;;;;;;10476933;28;20120;-33
2022/09/13 22:25:30;;;;;;;4.32;2.38;;;26.60;55.00;;;;;;10474156;28;20049;-29
2022/09/13 22:30:34;;;;;;;7.05;2.50;;;26.60;55.00;;;;;;10475054;28;20051;-30
2022/09/13 22:35:37;;;;;;;5.15;2.00;;;26.40;54.90;;;;;;10476552;28;20131;-28
2022/09/13 22:40:39;;;;;;;4.18;1.80;;;26.40;54.80;;;;;;10473532;28;20112;-34
2022/09/13 22:45:41;;;;;;;3.67;1.98;;;26.40;54.90;;;;;;10471278;28;20412;-33
2022/09/13 22:50:48;;;;;;;5.45;2.42;;;26.40;54.90;;;;;;10472311;28;20179;-32
2022/09/13 22:55:50;;;;;;;6.55;2.55;;;26.40;55.00;;;;;;10482039;28;20067;-34
2022/09/13 23:01:00;;;;;;;6.60;2.45;;;26.40;55.00;;;;;;10482699;28;20086;-39
2022/09/13 23:06:04;;;;;;;4.00;1.92;;;26.30;55.00;;;;;;10481178;28;20565;-28
2022/09/13 23:11:11;;;;;;;4.60;2.05;;;26.50;55.20;;;;;;10480106;28;20143;-32
2022/09/13 23:16:16;;;;;;;4.47;2.00;;;26.20;55.10;;;;;;10481155;28;20455;-34
2022/09/13 23:21:20;;;;;;;5.03;2.45;;;26.20;55.10;;;;;;10481223;28;20131;-34
2022/09/13 23:26:23;;;;;;;5.07;2.55;;;26.20;55.20;;;;;;10480446;28;20041;-35
2022/09/13 23:31:27;;;;;;;5.63;2.55;;;26.20;55.20;;;;;;10479799;28;20174;-31
2022/09/13 23:36:33;;;;;;;4.90;2.28;;;26.20;55.20;;;;;;10478658;28;20052;-41
2022/09/13 23:41:35;;;;;;;3.40;1.98;;;26.00;55.10;;;;;;10481881;28;20102;-34
2022/09/13 23:46:37;;;;;;;3.08;1.67;;;26.10;55.30;;;;;;10480303;28;20053;-31
2022/09/13 23:51:40;;;;;;;4.03;1.73;;;26.10;55.30;;;;;;10479825;28;20075;-33
2022/09/13 23:56:43;;;;;;;4.82;2.30;;;26.10;55.30;;;;;;10481025;28;20084;-31
